Time;durP1;ratioP1;P1;durP2;ratioP2;P2;SDS_P1;SDS_P2;PMS_P1;PMS_P2;Temp;Humidity;BMP_temperature;BMP_pressure;BME280_temperature;BME280_humidity;BME280_pressure;Samples;Min_cycle;Max_cycle;Signal;HPM_P1;HPM_P2
2022/06/10 00:00:52;;;;;;;4.78;3.70;;;11.40;99.90;;;;;;4920855;29;20043;-60
2022/06/10 00:03:20;;;;;;;4.53;4.13;;;11.30;99.90;;;;;;4923346;29;20102;-61
2022/06/10 00:05:48;;;;;;;4.75;4.35;;;11.30;99.90;;;;;;4921689;29;20033;-60
2022/06/10 00:08:18;;;;;;;4.57;4.18;;;11.20;99.90;;;;;;4922598;29;20095;-60
2022/06/10 00:10:49;;;;;;;4.72;4.32;;;11.20;99.90;;;;;;4908677;29;20392;-60
2022/06/10 00:13:15;;;;;;;5.10;4.70;;;11.10;99.90;;;;;;4922448;29;20062;-60
2022/06/10 00:15:42;;;;;;;5.97;4.22;;;11.10;99.90;;;;;;4919763;29;20039;-61
2022/06/10 00:18:08;;;;;;;4.32;3.92;;;11.10;99.90;;;;;;4906415;29;20046;-60
2022/06/10 00:20:35;;;;;;;4.65;4.07;;;11.00;99.90;;;;;;4923064;29;20385;-60
2022/06/10 00:23:01;;;;;;;5.90;4.55;;;11.00;99.90;;;;;;4920785;29;20838;-60
2022/06/10 00:25:28;;;;;;;5.80;4.78;;;10.90;99.90;;;;;;4921551;29;20063;-60
2022/06/10 00:27:54;;;;;;;5.57;4.97;;;10.90;99.90;;;;;;4919944;29;20483;-60
2022/06/10 00:30:25;;;;;;;5.43;4.97;;;10.90;99.90;;;;;;4923660;29;20511;-60
2022/06/10 00:32:50;;;;;;;6.82;5.30;;;10.90;99.90;;;;;;4919278;29;20544;-60
2022/06/10 00:35:17;;;;;;;5.88;5.38;;;10.80;99.90;;;;;;4923475;29;20044;-59
2022/06/10 00:37:43;;;;;;;5.90;5.40;;;10.80;99.90;;;;;;4921498;29;20569;-60
2022/06/10 00:40:14;;;;;;;11.25;5.13;;;10.70;99.90;;;;;;4921164;29;20024;-60
2022/06/10 00:42:40;;;;;;;;;;;10.60;99.90;;;;;;4924229;29;20126;-60
2022/06/10 00:45:26;;;;;;;5.93;5.43;;;10.60;99.90;;;;;;4923620;29;19994;-61
2022/06/10 00:47:52;;;;;;;5.88;5.30;;;10.50;99.90;;;;;;4923359;29;20038;-60
2022/06/10 00:50:29;;;;;;;6.70;6.10;;;10.50;99.90;;;;;;4921398;29;20032;-60
2022/06/10 00:53:01;;;;;;;7.75;6.57;;;10.40;99.90;;;;;;4922503;29;20044;-60
2022/06/10 00:55:29;;;;;;;5.80;4.78;;;10.40;99.90;;;;;;4922710;29;20036;-61
2022/06/10 00:58:03;;;;;;;6.30;5.70;;;10.40;99.90;;;;;;4924705;29;20042;-60
2022/06/10 01:00:29;;;;;;;6.07;5.53;;;10.40;99.90;;;;;;4914982;29;20055;-61
2022/06/10 01:02:55;;;;;;;5.72;5.22;;;10.30;99.90;;;;;;4922040;29;20453;-60
2022/06/10 01:05:27;;;;;;;4.78;4.28;;;10.30;99.90;;;;;;4921787;29;20471;-60
2022/06/10 01:07:55;;;;;;;;;;;10.30;99.90;;;;;;4921939;29;20468;-60
2022/06/10 01:10:21;;;;;;;5.63;5.13;;;10.30;99.90;;;;;;4924188;29;20283;-60
2022/06/10 01:13:19;;;;;;;6.15;5.55;;;10.20;99.90;;;;;;4923561;29;20080;-60
2022/06/10 01:15:48;;;;;;;5.80;5.30;;;10.20;99.90;;;;;;4920733;29;20784;-60
2022/06/10 01:18:20;;;;;;;5.93;5.35;;;10.30;99.90;;;;;;4918988;29;20088;-60
2022/06/10 01:21:07;;;;;;;5.03;4.50;;;10.30;99.90;;;;;;4923501;29;20024;-60
2022/06/10 01:23:54;;;;;;;4.70;4.30;;;10.30;99.90;;;;;;4922040;29;20028;-60
2022/06/10 01:26:28;;;;;;;4.57;4.18;;;10.10;99.90;;;;;;4921819;29;20404;-60
2022/06/10 01:29:25;;;;;;;5.60;5.10;;;10.10;99.90;;;;;;4920740;29;20032;-59
2022/06/10 01:32:03;;;;;;;5.18;4.78;;;10.00;99.90;;;;;;4927472;29;20039;-60
2022/06/10 01:34:35;;;;;;;4.85;4.40;;;9.90;99.90;;;;;;4919526;29;20036;-60
2022/06/10 01:37:27;;;;;;;5.72;5.22;;;9.80;99.90;;;;;;4919479;29;20503;-60
2022/06/10 01:40:10;;;;;;;6.70;5.78;;;9.80;99.90;;;;;;4915850;29;20119;-60
2022/06/10 01:42:49;;;;;;;7.88;5.80;;;9.80;99.90;;;;;;4912057;29;20028;-59
2022/06/10 01:45:35;;;;;;;5.90;5.30;;;9.80;99.90;;;;;;4919649;29;20392;-60
2022/06/10 01:48:40;;;;;;;6.10;5.50;;;9.80;99.90;;;;;;4918794;29;20056;-61
2022/06/10 01:51:20;;;;;;;6.63;5.60;;;9.80;99.90;;;;;;4890611;29;20036;-61
2022/06/10 01:53:58;;;;;;;6.72;6.03;;;9.70;99.90;;;;;;4923107;29;20040;-60
2022/06/10 01:56:35;;;;;;;13.45;6.53;;;9.70;99.90;;;;;;4921274;29;20044;-60
2022/06/10 01:59:22;;;;;;;6.18;5.55;;;9.60;99.90;;;;;;4920407;29;20039;-59
2022/06/10 02:01:54;;;;;;;6.15;5.55;;;9.60;99.90;;;;;;4923193;29;20028;-59
2022/06/10 02:04:36;;;;;;;4.93;4.43;;;9.60;99.90;;;;;;4904106;29;20035;-60
2022/06/10 02:07:33;;;;;;;4.10;3.80;;;9.50;99.90;;;;;;4919933;29;20043;-60
2022/06/10 02:10:36;;;;;;;6.30;5.57;;;9.40;99.90;;;;;;4918782;29;20032;-61
2022/06/10 02:13:14;;;;;;;5.97;5.28;;;9.40;99.90;;;;;;4919321;29;20119;-59
2022/06/10 02:15:52;;;;;;;15.23;6.05;;;9.40;99.90;;;;;;4924118;29;20028;-60
2022/06/10 02:18:32;;;;;;;6.10;5.60;;;9.30;99.90;;;;;;4920214;29;20052;-60
2022/06/10 02:21:02;;;;;;;5.53;4.70;;;9.30;99.90;;;;;;4919736;29;20043;-60
2022/06/10 02:23:33;;;;;;;5.43;4.68;;;9.30;99.90;;;;;;4901475;29;20658;-59
2022/06/10 02:25:59;;;;;;;;;;;9.20;99.90;;;;;;4920837;29;20445;-60
2022/06/10 02:28:41;;;;;;;5.57;4.85;;;9.20;99.90;;;;;;4909557;29;20370;-60
2022/06/10 02:31:13;;;;;;;4.68;4.28;;;9.20;99.90;;;;;;4902972;29;20087;-60
2022/06/10 02:33:39;;;;;;;6.68;5.32;;;9.10;99.90;;;;;;4920597;29;20080;-60
2022/06/10 02:36:05;;;;;;;7.65;5.93;;;9.10;99.90;;;;;;4921190;29;20035;-59
2022/06/10 02:39:08;;;;;;;5.47;4.97;;;9.10;99.90;;;;;;4917591;29;20499;-60
2022/06/10 02:42:00;;;;;;;8.32;5.65;;;9.10;99.90;;;;;;4816644;29;20046;-61
2022/06/10 02:44:25;;;;;;;;;;;9.00;99.90;;;;;;4914723;29;20031;-60
2022/06/10 02:47:01;;;;;;;10.40;5.22;;;9.00;99.90;;;;;;4919059;29;19919;-60
2022/06/10 02:49:27;;;;;;;4.40;2.90;;;8.90;99.90;;;;;;4921840;29;20419;-61
2022/06/10 02:51:53;;;;;;;4.85;4.00;;;8.80;99.90;;;;;;4923789;29;20058;-60
2022/06/10 02:54:30;;;;;;;3.90;3.60;;;8.80;99.90;;;;;;4925584;29;20392;-60
2022/06/10 02:56:57;;;;;;;4.50;4.15;;;8.70;99.90;;;;;;4920483;29;20582;-60
2022/06/10 03:02:46;;;;;;;24.77;4.32;;;8.70;99.90;;;;;;4923429;29;20446;-60
2022/06/10 03:05:12;;;;;;;78.53;5.68;;;8.60;99.90;;;;;;4917980;29;20036;-59
2022/06/10 03:08:01;;;;;;;38.97;5.20;;;8.60;99.90;;;;;;4920116;29;20047;-60
2022/06/10 03:10:33;;;;;;;330.50;11.88;;;8.50;99.90;;;;;;4921077;29;20118;-60
2022/06/10 03:13:16;;;;;;;210.00;8.57;;;8.50;99.90;;;;;;4925250;29;20039;-60
2022/06/10 03:16:12;;;;;;;104.80;5.97;;;8.50;99.90;;;;;;4923353;29;20031;-60
2022/06/10 03:19:03;;;;;;;34.28;4.82;;;8.60;99.90;;;;;;4922722;29;20074;-60
2022/06/10 03:21:51;;;;;;;14.30;3.78;;;8.60;99.90;;;;;;4924810;29;20114;-60
2022/06/10 03:24:24;;;;;;;6.90;6.10;;;8.60;99.90;;;;;;4926775;29;20043;-60
2022/06/10 03:27:29;;;;;;;5.05;4.65;;;8.60;99.90;;;;;;4922264;29;20048;-60
2022/06/10 03:30:17;;;;;;;4.95;4.45;;;8.70;99.90;;;;;;4917565;29;20023;-60
2022/06/10 03:32:58;;;;;;;5.90;5.40;;;8.70;99.90;;;;;;4920269;29;20126;-59
2022/06/10 03:35:48;;;;;;;12.10;5.32;;;8.70;99.90;;;;;;4922249;29;20032;-60
2022/06/10 03:38:14;;;;;;;5.55;5.05;;;8.70;99.90;;;;;;4925151;29;20106;-59
2022/06/10 03:40:41;;;;;;;6.78;6.07;;;8.80;99.90;;;;;;4920965;29;20092;-59
2022/06/10 03:43:11;;;;;;;6.07;5.53;;;8.80;99.90;;;;;;4927298;29;20024;-60
2022/06/10 03:45:44;;;;;;;8.77;6.40;;;8.80;99.90;;;;;;4923889;29;20183;-60
2022/06/10 03:48:15;;;;;;;8.18;6.03;;;8.90;99.90;;;;;;4924385;29;20032;-60
2022/06/10 03:50:41;;;;;;;7.88;7.18;;;8.90;99.90;;;;;;4922162;29;20032;-60
2022/06/10 03:53:12;;;;;;;7.85;7.15;;;8.90;99.90;;;;;;4921774;29;20032;-60
2022/06/10 03:55:38;;;;;;;6.43;5.90;;;9.00;99.90;;;;;;4912004;29;20048;-60
2022/06/10 03:58:04;;;;;;;8.65;5.57;;;9.00;99.90;;;;;;4924017;29;20023;-60
2022/06/10 04:00:29;;;;;;;6.25;5.65;;;9.10;99.90;;;;;;4922392;29;20032;-60
2022/06/10 04:02:55;;;;;;;6.30;4.97;;;9.10;99.90;;;;;;4922907;29;20117;-60
2022/06/10 04:05:21;;;;;;;6.07;5.18;;;9.20;99.90;;;;;;4917002;29;20033;-60
2022/06/10 04:07:46;;;;;;;6.45;5.85;;;9.20;99.90;;;;;;4924057;29;20046;-60
2022/06/10 04:10:17;;;;;;;5.82;5.22;;;9.20;99.90;;;;;;4922147;29;20514;-60
2022/06/10 04:12:42;;;;;;;4.80;4.30;;;9.30;99.90;;;;;;4922309;29;20412;-60
2022/06/10 04:15:10;;;;;;;4.32;3.95;;;9.30;99.90;;;;;;4924983;29;20043;-59
2022/06/10 04:17:35;;;;;;;3.78;3.05;;;9.30;99.90;;;;;;4911276;29;20373;-59
2022/06/10 04:20:03;;;;;;;5.20;4.70;;;9.30;99.90;;;;;;4924432;29;20107;-60
2022/06/10 04:22:29;;;;;;;7.47;5.05;;;9.40;99.90;;;;;;4920482;29;20084;-59
2022/06/10 04:24:55;;;;;;;5.10;3.97;;;9.40;99.90;;;;;;4923444;29;20387;-60
2022/06/10 04:27:21;;;;;;;5.78;4.43;;;9.50;99.90;;;;;;4922805;29;20020;-60
2022/06/10 04:29:46;;;;;;;5.38;4.88;;;9.50;99.90;;;;;;4919340;29;20039;-60
2022/06/10 04:32:12;;;;;;;5.40;4.72;;;9.60;99.90;;;;;;4922931;29;20047;-60
2022/06/10 04:34:38;;;;;;;4.95;4.45;;;9.60;99.90;;;;;;4923630;29;20542;-60
2022/06/10 04:37:04;;;;;;;5.80;5.30;;;9.60;99.90;;;;;;4922619;29;20396;-60
2022/06/10 04:39:30;;;;;;;5.50;4.90;;;9.70;99.90;;;;;;4920934;29;20043;-60
2022/06/10 04:41:56;;;;;;;8.88;5.82;;;9.70;99.90;;;;;;4920317;29;20020;-60
2022/06/10 04:44:22;;;;;;;5.90;5.40;;;9.80;99.90;;;;;;4925433;29;20043;-59
2022/06/10 04:46:47;;;;;;;5.43;4.90;;;9.90;99.90;;;;;;4917718;29;20037;-60
2022/06/10 04:49:14;;;;;;;7.00;6.30;;;10.00;99.90;;;;;;4920835;29;20036;-60
2022/06/10 04:51:40;;;;;;;5.68;5.13;;;10.10;99.90;;;;;;4922896;29;20036;-60
2022/06/10 04:54:07;;;;;;;6.10;5.50;;;10.20;99.90;;;;;;4921056;29;20146;-60
2022/06/10 04:56:33;;;;;;;6.05;5.55;;;10.30;99.90;;;;;;4920737;29;20036;-60
2022/06/10 04:58:59;;;;;;;6.05;5.45;;;10.40;99.90;;;;;;4921106;29;20115;-60
2022/06/10 05:01:24;;;;;;;5.30;4.85;;;10.50;99.90;;;;;;4922181;29;20106;-60
2022/06/10 05:03:50;;;;;;;5.57;5.15;;;10.60;99.90;;;;;;4922046;29;20076;-59
2022/06/10 05:06:16;;;;;;;7.03;6.32;;;10.80;99.90;;;;;;4923538;29;20533;-60
2022/06/10 05:08:42;;;;;;;10.05;5.13;;;10.90;99.90;;;;;;4921501;29;20043;-60
2022/06/10 05:11:07;;;;;;;6.88;6.20;;;11.30;99.90;;;;;;4922055;29;20036;-60
2022/06/10 05:13:35;;;;;;;4.97;4.38;;;12.30;99.90;;;;;;4920968;29;20116;-60
2022/06/10 05:16:01;;;;;;;4.50;4.03;;;13.70;99.90;;;;;;4922947;29;20016;-61
2022/06/10 05:18:27;;;;;;;3.97;3.58;;;15.40;99.90;;;;;;4925075;29;20032;-61
2022/06/10 05:20:53;;;;;;;3.90;3.47;;;17.10;99.90;;;;;;4922430;29;20488;-61
2022/06/10 05:23:22;;;;;;;4.03;3.72;;;18.50;99.90;;;;;;4926511;29;20035;-61
2022/06/10 05:25:48;;;;;;;3.42;3.13;;;19.60;99.90;;;;;;4920993;28;20036;-61
2022/06/10 05:28:14;;;;;;;6.60;3.33;;;20.30;99.90;;;;;;4921015;29;20550;-61
2022/06/10 05:30:41;;;;;;;3.17;2.90;;;21.00;99.90;;;;;;4917322;29;20079;-61
2022/06/10 05:33:08;;;;;;;3.50;3.20;;;21.90;99.90;;;;;;4920749;29;20040;-61
2022/06/10 05:35:34;;;;;;;4.13;3.28;;;22.50;99.90;;;;;;4909022;29;20033;-61
2022/06/10 05:38:00;;;;;;;4.70;3.40;;;22.80;94.20;;;;;;4918013;29;20044;-62
2022/06/10 05:40:28;;;;;;;3.83;3.53;;;23.30;85.90;;;;;;4917806;29;20060;-61
2022/06/10 05:42:54;;;;;;;3.28;2.97;;;24.00;77.90;;;;;;4903828;29;20480;-62
2022/06/10 05:45:21;;;;;;;4.03;3.63;;;24.20;80.10;;;;;;4906467;29;20028;-61
2022/06/10 05:47:53;;;;;;;3.67;3.13;;;24.20;74.50;;;;;;4918817;29;20028;-62
2022/06/10 05:50:23;;;;;;;3.17;2.70;;;24.50;79.00;;;;;;4924180;29;20120;-61
2022/06/10 05:52:50;;;;;;;4.03;3.38;;;24.90;72.00;;;;;;4919449;29;20028;-62
2022/06/10 05:55:16;;;;;;;3.47;2.85;;;25.40;71.90;;;;;;4918756;29;20532;-62
2022/06/10 05:57:42;;;;;;;3.55;3.25;;;26.10;64.50;;;;;;4904950;29;20524;-62
2022/06/10 06:00:17;;;;;;;3.72;3.42;;;25.90;63.60;;;;;;4920546;29;20032;-61
2022/06/10 06:02:43;;;;;;;4.35;3.17;;;25.80;66.70;;;;;;4917684;29;20032;-62
2022/06/10 06:05:10;;;;;;;4.70;3.38;;;26.20;63.50;;;;;;4918098;29;20032;-62
2022/06/10 06:07:38;;;;;;;3.80;3.40;;;26.70;60.00;;;;;;4922412;29;20036;-62
2022/06/10 06:10:05;;;;;;;3.25;3.05;;;26.90;60.80;;;;;;4921405;29;20027;-62
2022/06/10 06:12:30;;;;;;;5.78;3.45;;;27.10;61.40;;;;;;4914110;29;20040;-62
2022/06/10 06:14:56;;;;;;;3.40;3.10;;;27.70;58.40;;;;;;4923408;29;20094;-62
2022/06/10 06:17:22;;;;;;;3.70;3.40;;;28.20;56.60;;;;;;4921875;29;20024;-62
2022/06/10 06:19:48;;;;;;;3.03;2.83;;;28.60;55.10;;;;;;4916874;29;20395;-62
2022/06/10 06:22:15;;;;;;;3.72;2.85;;;29.00;55.10;;;;;;4925307;29;20114;-61
2022/06/10 06:24:41;;;;;;;3.80;2.65;;;29.00;54.20;;;;;;4918739;29;20391;-61
2022/06/10 06:27:10;;;;;;;2.72;2.53;;;29.20;54.30;;;;;;4917608;29;20261;-61
2022/06/10 06:29:35;;;;;;;3.05;2.72;;;29.00;53.90;;;;;;4920655;29;20070;-61
2022/06/10 06:32:01;;;;;;;2.90;2.47;;;28.90;54.30;;;;;;4920190;29;20032;-61
2022/06/10 06:34:27;;;;;;;3.97;2.55;;;29.10;53.70;;;;;;4920961;29;20126;-61
2022/06/10 06:36:55;;;;;;;2.70;2.28;;;29.30;52.70;;;;;;4916753;29;20036;-62
2022/06/10 06:39:23;;;;;;;2.42;2.22;;;29.70;52.50;;;;;;4922358;29;20024;-61
2022/06/10 06:41:50;;;;;;;2.47;2.22;;;30.00;51.60;;;;;;4922101;29;20399;-61
2022/06/10 06:44:16;;;;;;;3.17;2.33;;;30.00;51.70;;;;;;4915221;29;20510;-61
2022/06/10 06:46:43;;;;;;;3.50;2.72;;;30.20;51.30;;;;;;4922116;29;20063;-61
2022/06/10 06:49:14;;;;;;;4.50;1.95;;;30.30;51.30;;;;;;4919494;29;20055;-60
2022/06/10 06:51:40;;;;;;;2.88;1.92;;;31.30;50.60;;;;;;4921162;29;20032;-59
2022/06/10 06:54:10;;;;;;;2.10;1.90;;;32.20;48.60;;;;;;4921814;29;20047;-59
2022/06/10 06:56:36;;;;;;;3.65;2.15;;;32.60;47.80;;;;;;4920495;29;20036;-59
2022/06/10 06:59:03;;;;;;;1.75;1.63;;;33.00;46.70;;;;;;4920165;29;20760;-60
2022/06/10 07:01:29;;;;;;;3.50;2.15;;;33.20;46.10;;;;;;4917770;29;20079;-59
2022/06/10 07:03:55;;;;;;;2.47;1.60;;;32.90;46.50;;;;;;4916625;29;20032;-60
2022/06/10 07:06:21;;;;;;;2.42;1.77;;;32.40;47.70;;;;;;4921033;29;20036;-60
2022/06/10 07:08:46;;;;;;;1.90;1.58;;;32.20;48.10;;;;;;4919407;29;20036;-60
2022/06/10 07:11:12;;;;;;;2.20;1.70;;;32.30;47.90;;;;;;4917075;29;20591;-59
2022/06/10 07:13:38;;;;;;;2.55;1.63;;;32.20;46.90;;;;;;4917034;29;20519;-59
2022/06/10 07:16:05;;;;;;;3.53;1.75;;;32.40;46.70;;;;;;4921089;29;20028;-59
2022/06/10 07:18:32;;;;;;;4.53;1.85;;;33.20;46.20;;;;;;4920840;29;20596;-59
2022/06/10 07:20:58;;;;;;;2.90;1.90;;;33.40;45.70;;;;;;4918163;29;20029;-59
2022/06/10 07:23:25;;;;;;;1.88;1.55;;;33.20;44.80;;;;;;4916625;29;20079;-59
2022/06/10 07:25:51;;;;;;;4.53;2.00;;;33.00;45.30;;;;;;4918653;29;20032;-59
2022/06/10 07:28:17;;;;;;;2.40;1.90;;;32.80;46.70;;;;;;4921736;29;20923;-60
2022/06/10 07:30:43;;;;;;;4.20;1.73;;;32.80;45.40;;;;;;4918044;29;20052;-59
2022/06/10 07:33:10;;;;;;;3.08;1.35;;;33.10;45.60;;;;;;4918362;29;20035;-59
2022/06/10 07:35:36;;;;;;;2.53;1.40;;;33.30;45.10;;;;;;4919568;29;20039;-60
2022/06/10 07:38:03;;;;;;;3.60;1.67;;;33.00;45.00;;;;;;4921717;29;20040;-60
2022/06/10 07:43:20;;;;;;;5.18;1.80;;;33.20;45.90;;;;;;4925438;29;20042;-59
2022/06/10 07:45:46;;;;;;;3.25;1.88;;;33.50;45.30;;;;;;4922268;29;20032;-59
2022/06/10 07:48:13;;;;;;;2.85;1.80;;;34.30;44.30;;;;;;4923643;29;20031;-59
2022/06/10 07:50:41;;;;;;;2.08;1.35;;;34.90;43.80;;;;;;4905790;29;20039;-59
2022/06/10 07:53:08;;;;;;;2.33;1.33;;;34.60;43.40;;;;;;4921308;29;20103;-59
2022/06/10 07:55:35;;;;;;;4.60;1.60;;;34.40;43.60;;;;;;4925866;29;20127;-59
2022/06/10 07:58:01;;;;;;;1.95;1.30;;;34.30;42.50;;;;;;4920165;29;20100;-60
2022/06/10 08:00:27;;;;;;;1.77;1.23;;;35.00;43.00;;;;;;4924030;29;20028;-60
2022/06/10 08:02:52;;;;;;;2.10;1.33;;;35.30;43.00;;;;;;4920847;29;20036;-59
2022/06/10 08:05:19;;;;;;;2.55;1.30;;;36.00;41.80;;;;;;4928001;29;20039;-59
2022/06/10 08:07:46;;;;;;;1.98;1.10;;;36.00;40.40;;;;;;4910394;29;20563;-59
2022/06/10 08:10:26;;;;;;;2.90;1.17;;;35.80;40.90;;;;;;4921826;29;20070;-59
2022/06/10 08:12:51;;;;;;;1.20;1.05;;;35.90;40.50;;;;;;4921772;29;20036;-63
2022/06/10 08:15:20;;;;;;;1.80;1.02;;;35.80;41.70;;;;;;4922858;29;20031;-60
2022/06/10 08:17:46;;;;;;;1.10;0.90;;;35.50;41.40;;;;;;4922378;29;20032;-61
2022/06/10 08:20:23;;;;;;;4.40;1.40;;;35.90;39.90;;;;;;4924714;29;20024;-61
2022/06/10 08:22:49;;;;;;;2.03;0.90;;;35.40;40.40;;;;;;4919862;29;20036;-61
2022/06/10 08:25:16;;;;;;;1.67;0.88;;;35.20;41.20;;;;;;4921264;29;20495;-60
2022/06/10 08:27:42;;;;;;;4.80;1.15;;;34.80;41.70;;;;;;4925370;29;20027;-60
2022/06/10 08:30:13;;;;;;;3.60;0.82;;;34.60;41.20;;;;;;4922741;29;20497;-61
2022/06/10 08:32:38;;;;;;;2.50;0.90;;;34.70;40.10;;;;;;4920906;29;20043;-60
2022/06/10 08:35:06;;;;;;;1.55;0.70;;;34.80;40.60;;;;;;4918624;29;20604;-61
2022/06/10 08:37:32;;;;;;;2.80;0.90;;;34.80;41.30;;;;;;4919993;29;20518;-61
2022/06/10 08:39:58;;;;;;;2.00;1.00;;;34.80;40.70;;;;;;4923156;29;20076;-61
2022/06/10 08:42:33;;;;;;;1.92;0.82;;;34.70;40.70;;;;;;4923590;29;20080;-61
2022/06/10 08:45:03;;;;;;;1.75;0.70;;;34.90;41.10;;;;;;4905378;29;20023;-60
2022/06/10 08:47:43;;;;;;;2.75;0.82;;;35.00;40.90;;;;;;4920184;29;20648;-61
2022/06/10 08:50:30;;;;;;;2.40;0.80;;;34.80;38.60;;;;;;4924815;29;20031;-61
2022/06/10 08:53:08;;;;;;;1.10;0.65;;;35.00;38.90;;;;;;4920533;29;20037;-61
2022/06/10 08:55:44;;;;;;;1.10;0.70;;;34.90;38.80;;;;;;4919061;29;20119;-61
2022/06/10 08:58:29;;;;;;;1.67;0.68;;;35.20;39.10;;;;;;4907677;29;20024;-61
2022/06/10 09:00:59;;;;;;;2.53;0.77;;;35.40;37.90;;;;;;4923464;29;20031;-61
2022/06/10 09:03:38;;;;;;;0.95;0.45;;;35.20;39.40;;;;;;4921112;29;20083;-60
2022/06/10 09:06:09;;;;;;;1.73;0.50;;;34.80;39.20;;;;;;4921115;29;20373;-61
2022/06/10 09:08:40;;;;;;;2.83;0.60;;;34.50;38.00;;;;;;4921994;29;20377;-61
2022/06/10 09:11:19;;;;;;;5.13;0.63;;;34.10;36.40;;;;;;4922528;29;20027;-61
2022/06/10 09:13:51;;;;;;;0.90;0.35;;;34.70;39.20;;;;;;4905015;29;20560;-61
2022/06/10 09:16:24;;;;;;;1.33;0.40;;;35.40;36.20;;;;;;4907148;29;20550;-61
2022/06/10 09:18:49;;;;;;;2.75;0.40;;;34.90;37.50;;;;;;4924047;29;20030;-61
2022/06/10 09:21:42;;;;;;;1.92;0.60;;;34.60;38.90;;;;;;4920131;29;20032;-62
2022/06/10 09:24:55;;;;;;;2.17;0.60;;;34.80;38.00;;;;;;4920529;29;20525;-61
2022/06/10 09:27:30;;;;;;;2.22;0.50;;;34.50;39.20;;;;;;4899823;29;20047;-60
2022/06/10 09:29:57;;;;;;;1.05;0.60;;;35.30;39.10;;;;;;4911665;29;20043;-61
2022/06/10 09:32:35;;;;;;;1.40;0.60;;;36.10;36.30;;;;;;4916377;29;20035;-61
2022/06/10 09:35:16;;;;;;;2.67;0.55;;;36.70;36.80;;;;;;4917998;29;20036;-62
2022/06/10 09:38:09;;;;;;;2.53;0.70;;;37.00;35.60;;;;;;4917200;29;20568;-61
2022/06/10 09:40:36;;;;;;;1.02;0.40;;;37.00;33.60;;;;;;4921058;29;20036;-61
2022/06/10 09:43:48;;;;;;;0.82;0.60;;;36.80;35.20;;;;;;4920854;29;20403;-61
2022/06/10 09:46:35;;;;;;;2.30;0.70;;;36.40;35.70;;;;;;4878608;29;20048;-61
2022/06/10 09:49:26;;;;;;;2.85;0.60;;;36.30;36.20;;;;;;4923155;29;20036;-61
2022/06/10 09:52:20;;;;;;;1.83;0.57;;;36.30;36.90;;;;;;4922727;29;20066;-61
2022/06/10 09:55:15;;;;;;;0.32;0.30;;;36.30;35.20;;;;;;4915317;29;20044;-61
2022/06/10 09:58:13;;;;;;;1.70;0.52;;;36.40;34.70;;;;;;4902916;29;20586;-62
2022/06/10 10:01:03;;;;;;;1.83;0.43;;;36.10;35.00;;;;;;4864511;29;20036;-61
2022/06/10 10:03:49;;;;;;;;;;;36.10;36.60;;;;;;4920775;29;20036;-61
2022/06/10 10:06:42;;;;;;;0.40;0.40;;;36.30;35.90;;;;;;4923307;29;19933;-61
2022/06/10 10:09:46;;;;;;;4.57;0.52;;;36.90;35.70;;;;;;4909437;29;20054;-61
2022/06/10 10:12:15;;;;;;;2.88;0.60;;;36.10;34.00;;;;;;4916796;29;20702;-61
2022/06/10 10:14:59;;;;;;;2.38;0.75;;;35.70;36.70;;;;;;4925502;29;20106;-61
2022/06/10 10:17:57;;;;;;;1.48;0.50;;;35.80;36.20;;;;;;4917120;29;20076;-61
2022/06/10 10:20:35;;;;;;;1.60;0.50;;;36.10;36.70;;;;;;4897481;29;20031;-61
2022/06/10 10:23:20;;;;;;;1.25;0.50;;;35.70;35.90;;;;;;4915537;29;20052;-61
2022/06/10 10:25:46;;;;;;;1.65;0.52;;;35.90;36.40;;;;;;4917094;29;20392;-61
2022/06/10 10:28:27;;;;;;;1.63;0.70;;;35.80;36.60;;;;;;4918780;29;20072;-61
2022/06/10 10:31:02;;;;;;;1.83;0.50;;;35.50;37.20;;;;;;4920855;29;20456;-61
2022/06/10 10:33:28;;;;;;;2.45;0.70;;;35.60;36.80;;;;;;4920070;29;20047;-61
2022/06/10 10:35:56;;;;;;;2.05;0.50;;;35.70;36.40;;;;;;4913798;29;20433;-61
2022/06/10 10:38:34;;;;;;;1.45;0.60;;;35.50;37.20;;;;;;4914688;29;20040;-61
2022/06/10 10:41:10;;;;;;;1.38;0.60;;;35.00;38.30;;;;;;4918165;29;20172;-61
2022/06/10 10:43:36;;;;;;;2.58;0.60;;;34.60;38.30;;;;;;4915424;29;20048;-61
2022/06/10 10:46:21;;;;;;;1.55;0.70;;;34.30;39.60;;;;;;4919667;29;20028;-61
2022/06/10 10:48:48;;;;;;;0.90;0.50;;;34.10;38.50;;;;;;4919616;29;20058;-61
2022/06/10 10:51:13;;;;;;;1.98;0.73;;;34.40;39.50;;;;;;4917114;29;20116;-61
2022/06/10 10:54:02;;;;;;;1.33;0.60;;;34.20;38.20;;;;;;4915265;29;20072;-61
2022/06/10 10:56:32;;;;;;;1.40;0.60;;;34.20;39.50;;;;;;4918286;29;20028;-60
2022/06/10 10:58:59;;;;;;;2.75;0.63;;;34.10;38.70;;;;;;4919170;29;20408;-60
2022/06/10 11:01:45;;;;;;;1.10;0.60;;;33.90;38.80;;;;;;4921418;29;20181;-60
2022/06/10 11:04:26;;;;;;;2.33;0.70;;;33.40;39.60;;;;;;4919510;29;20035;-60
2022/06/10 11:07:20;;;;;;;0.82;0.40;;;32.90;40.90;;;;;;4917562;29;20040;-60
2022/06/10 11:09:51;;;;;;;2.08;0.52;;;32.50;41.30;;;;;;4910715;29;20062;-60
2022/06/10 11:12:21;;;;;;;1.75;0.60;;;32.20;41.10;;;;;;4922562;29;20066;-60
2022/06/10 11:14:56;;;;;;;2.67;0.70;;;32.00;42.30;;;;;;4924160;29;20036;-60
2022/06/10 11:17:27;;;;;;;1.02;0.70;;;31.80;41.60;;;;;;4921194;29;20440;-60
2022/06/10 11:20:16;;;;;;;0.90;0.50;;;31.50;41.40;;;;;;4921993;29;20503;-60
2022/06/10 11:22:44;;;;;;;0.90;0.50;;;31.40;43.00;;;;;;4923454;29;20037;-60
2022/06/10 11:25:14;;;;;;;2.28;0.52;;;31.40;42.40;;;;;;4920110;29;20024;-60
2022/06/10 11:27:49;;;;;;;4.32;0.60;;;31.10;42.10;;;;;;4924169;29;20047;-60
2022/06/10 11:30:15;;;;;;;1.42;0.50;;;31.10;43.20;;;;;;4923062;29;20035;-60
2022/06/10 11:32:49;;;;;;;0.90;0.68;;;31.10;43.50;;;;;;4923420;29;20044;-60
2022/06/10 11:35:33;;;;;;;1.88;0.60;;;31.20;43.70;;;;;;4924034;29;20055;-62
2022/06/10 11:38:02;;;;;;;3.75;0.60;;;31.20;44.60;;;;;;4909217;29;20040;-62
2022/06/10 11:40:46;;;;;;;2.05;0.73;;;31.30;44.40;;;;;;4923033;29;20038;-62
2022/06/10 11:43:22;;;;;;;1.15;0.60;;;31.30;42.80;;;;;;4922267;29;20153;-62
2022/06/10 11:45:56;;;;;;;1.38;0.50;;;31.20;42.70;;;;;;4921359;29;20672;-62
2022/06/10 11:48:31;;;;;;;4.25;0.70;;;31.20;42.40;;;;;;4900151;29;20123;-62
2022/06/10 11:51:08;;;;;;;2.67;0.80;;;31.40;42.30;;;;;;4922989;29;20028;-62
2022/06/10 11:53:56;;;;;;;0.98;0.47;;;30.80;41.30;;;;;;4924372;29;20064;-62
2022/06/10 11:59:49;;;;;;;1.58;0.88;;;29.60;44.10;;;;;;4917662;29;20566;-61
2022/06/10 12:02:42;;;;;;;2.75;0.75;;;29.50;45.40;;;;;;4924646;29;20028;-60
2022/06/10 12:05:31;;;;;;;0.88;0.50;;;29.20;44.50;;;;;;4904836;29;20036;-60
2022/06/10 12:08:27;;;;;;;1.45;0.68;;;29.10;45.70;;;;;;4919763;29;20071;-60
2022/06/10 12:11:24;;;;;;;1.25;0.70;;;28.60;45.60;;;;;;4921910;29;20051;-59
2022/06/10 12:14:12;;;;;;;3.28;0.98;;;28.50;46.80;;;;;;4921751;29;20032;-60
2022/06/10 12:16:39;;;;;;;3.00;0.55;;;28.80;46.20;;;;;;4924017;29;20028;-61
2022/06/10 12:19:12;;;;;;;0.77;0.68;;;29.40;45.80;;;;;;4919809;29;20032;-62
2022/06/10 12:21:38;;;;;;;2.00;0.80;;;29.60;45.00;;;;;;4902845;29;20028;-61
2022/06/10 12:24:13;;;;;;;1.35;0.60;;;29.90;44.80;;;;;;4923618;29;20542;-61
2022/06/10 12:27:01;;;;;;;3.60;0.60;;;30.10;42.80;;;;;;4919407;29;20069;-62
2022/06/10 12:29:38;;;;;;;1.25;0.50;;;30.00;43.90;;;;;;4910507;29;20377;-61
2022/06/10 12:32:03;;;;;;;2.10;0.60;;;30.00;44.20;;;;;;4918421;29;20034;-61
2022/06/10 12:34:47;;;;;;;1.95;0.60;;;30.20;43.90;;;;;;4926443;29;20122;-61
2022/06/10 12:37:39;;;;;;;1.83;0.70;;;30.30;43.40;;;;;;4920183;29;20515;-62
2022/06/10 12:40:23;;;;;;;1.08;0.52;;;30.40;41.00;;;;;;4924485;29;20494;-62
2022/06/10 12:42:56;;;;;;;1.65;0.60;;;30.20;43.90;;;;;;4922277;29;20044;-62
2022/06/10 12:45:31;;;;;;;1.63;0.60;;;30.00;43.30;;;;;;4904910;29;20039;-62
2022/06/10 12:48:01;;;;;;;2.30;0.70;;;29.60;43.80;;;;;;4922049;29;20056;-61
2022/06/10 12:50:46;;;;;;;1.52;0.70;;;29.10;45.10;;;;;;4921246;29;20047;-62
2022/06/10 12:53:24;;;;;;;1.58;0.80;;;28.70;45.60;;;;;;4918160;29;20028;-62
2022/06/10 12:55:52;;;;;;;2.47;0.70;;;28.20;46.80;;;;;;4921276;29;20816;-62
2022/06/10 12:58:37;;;;;;;2.15;0.68;;;28.40;47.50;;;;;;4921149;29;20036;-61
2022/06/10 13:01:21;;;;;;;1.88;0.70;;;28.30;46.20;;;;;;4920095;29;20024;-61
2022/06/10 13:03:49;;;;;;;0.88;0.68;;;28.30;46.30;;;;;;4918661;29;20381;-62
2022/06/10 13:06:48;;;;;;;1.20;0.55;;;28.20;46.60;;;;;;4920708;29;20555;-61
2022/06/10 13:09:15;;;;;;;1.33;0.70;;;28.30;46.60;;;;;;4920971;29;20107;-61
2022/06/10 13:11:52;;;;;;;1.00;0.60;;;28.30;45.90;;;;;;4920348;29;20466;-61
2022/06/10 13:14:30;;;;;;;2.75;0.80;;;27.70;46.20;;;;;;4923824;29;20043;-62
2022/06/10 13:16:58;;;;;;;1.52;0.60;;;27.30;48.90;;;;;;4922193;29;20123;-61
2022/06/10 13:19:39;;;;;;;1.10;0.60;;;26.90;48.80;;;;;;4923086;29;20028;-62
2022/06/10 13:22:17;;;;;;;1.45;0.63;;;26.80;48.90;;;;;;4922817;29;20487;-61
2022/06/10 13:24:52;;;;;;;0.88;0.68;;;27.00;50.40;;;;;;4917200;29;20455;-62
2022/06/10 13:27:24;;;;;;;1.10;0.60;;;27.30;46.90;;;;;;4918247;29;20082;-62
2022/06/10 13:29:52;;;;;;;0.90;0.65;;;27.40;47.90;;;;;;4920938;29;20042;-61
2022/06/10 13:32:18;;;;;;;0.80;0.60;;;27.20;48.70;;;;;;4921588;29;20407;-62